sensor_id;sensor_type;location;lat;lon;timestamp;P1;durP1;ratioP1;P2;durP2;ratioP2
66761;SDS011;53672;48.176;16.338;2022-10-04T00:01:40;6.55;;;1.92;;
66761;SDS011;53672;48.176;16.338;2022-10-04T00:06:44;7.38;;;1.80;;
66761;SDS011;53672;48.176;16.338;2022-10-04T00:11:50;5.40;;;1.87;;
66761;SDS011;53672;48.176;16.338;2022-10-04T00:16:53;8.48;;;2.20;;
66761;SDS011;53672;48.176;16.338;2022-10-04T00:22:08;5.53;;;1.60;;
66761;SDS011;53672;48.176;16.338;2022-10-04T00:27:19;6.15;;;1.80;;
66761;SDS011;53672;48.176;16.338;2022-10-04T00:32:28;7.78;;;1.88;;
66761;SDS011;53672;48.176;16.338;2022-10-04T00:37:33;7.10;;;1.90;;
66761;SDS011;53672;48.176;16.338;2022-10-04T00:42:56;5.22;;;1.67;;
66761;SDS011;53672;48.176;16.338;2022-10-04T00:48:00;7.20;;;2.37;;
66761;SDS011;53672;48.176;16.338;2022-10-04T00:53:11;5.32;;;1.70;;
66761;SDS011;53672;48.176;16.338;2022-10-04T00:58:19;7.05;;;1.88;;
66761;SDS011;53672;48.176;16.338;2022-10-04T01:03:25;6.17;;;2.20;;
66761;SDS011;53672;48.176;16.338;2022-10-04T01:08:30;5.88;;;1.83;;
66761;SDS011;53672;48.176;16.338;2022-10-04T01:13:35;8.63;;;2.00;;
66761;SDS011;53672;48.176;16.338;2022-10-04T01:18:39;5.70;;;2.08;;
66761;SDS011;53672;48.176;16.338;2022-10-04T01:23:42;7.00;;;1.70;;
66761;SDS011;53672;48.176;16.338;2022-10-04T01:28:44;5.27;;;1.90;;
66761;SDS011;53672;48.176;16.338;2022-10-04T01:33:45;9.10;;;2.20;;
66761;SDS011;53672;48.176;16.338;2022-10-04T01:38:47;4.67;;;1.87;;
66761;SDS011;53672;48.176;16.338;2022-10-04T01:43:49;7.45;;;2.10;;
66761;SDS011;53672;48.176;16.338;2022-10-04T01:48:54;19.50;;;2.45;;
66761;SDS011;53672;48.176;16.338;2022-10-04T01:53:59;5.70;;;1.93;;
66761;SDS011;53672;48.176;16.338;2022-10-04T01:59:05;6.20;;;1.92;;
66761;SDS011;53672;48.176;16.338;2022-10-04T02:04:14;5.80;;;1.70;;
66761;SDS011;53672;48.176;16.338;2022-10-04T02:09:20;5.70;;;1.80;;
66761;SDS011;53672;48.176;16.338;2022-10-04T02:14:23;4.97;;;1.67;;
66761;SDS011;53672;48.176;16.338;2022-10-04T02:19:27;5.70;;;1.50;;
66761;SDS011;53672;48.176;16.338;2022-10-04T02:24:37;6.22;;;1.60;;
66761;SDS011;53672;48.176;16.338;2022-10-04T02:29:42;4.57;;;1.50;;
66761;SDS011;53672;48.176;16.338;2022-10-04T02:34:42;6.47;;;1.58;;
66761;SDS011;53672;48.176;16.338;2022-10-04T02:39:47;4.10;;;1.50;;
66761;SDS011;53672;48.176;16.338;2022-10-04T02:44:54;5.68;;;1.60;;
66761;SDS011;53672;48.176;16.338;2022-10-04T02:49:59;4.15;;;1.63;;
66761;SDS011;53672;48.176;16.338;2022-10-04T02:55:09;5.93;;;1.73;;
66761;SDS011;53672;48.176;16.338;2022-10-04T03:00:17;5.57;;;1.70;;
66761;SDS011;53672;48.176;16.338;2022-10-04T03:05:20;5.30;;;1.60;;
66761;SDS011;53672;48.176;16.338;2022-10-04T03:10:22;5.15;;;1.90;;
66761;SDS011;53672;48.176;16.338;2022-10-04T03:15:22;5.63;;;1.90;;
66761;SDS011;53672;48.176;16.338;2022-10-04T03:20:23;8.35;;;1.92;;
66761;SDS011;53672;48.176;16.338;2022-10-04T03:25:27;5.33;;;1.97;;
66761;SDS011;53672;48.176;16.338;2022-10-04T03:30:34;4.30;;;1.75;;
66761;SDS011;53672;48.176;16.338;2022-10-04T03:35:36;5.83;;;2.10;;
66761;SDS011;53672;48.176;16.338;2022-10-04T03:40:41;6.28;;;1.88;;
66761;SDS011;53672;48.176;16.338;2022-10-04T03:45:46;4.85;;;1.65;;
66761;SDS011;53672;48.176;16.338;2022-10-04T03:50:47;13.63;;;2.00;;
66761;SDS011;53672;48.176;16.338;2022-10-04T03:55:50;5.63;;;1.92;;
66761;SDS011;53672;48.176;16.338;2022-10-04T04:00:54;4.73;;;1.93;;
66761;SDS011;53672;48.176;16.338;2022-10-04T04:06:04;6.65;;;1.90;;
66761;SDS011;53672;48.176;16.338;2022-10-04T04:11:16;6.85;;;1.90;;
66761;SDS011;53672;48.176;16.338;2022-10-04T04:16:20;5.73;;;1.70;;
66761;SDS011;53672;48.176;16.338;2022-10-04T04:21:22;4.10;;;1.65;;
66761;SDS011;53672;48.176;16.338;2022-10-04T04:26:29;5.97;;;1.70;;
66761;SDS011;53672;48.176;16.338;2022-10-04T04:31:35;7.70;;;2.00;;
66761;SDS011;53672;48.176;16.338;2022-10-04T04:36:40;8.00;;;2.00;;
66761;SDS011;53672;48.176;16.338;2022-10-04T04:41:42;6.70;;;2.00;;
66761;SDS011;53672;48.176;16.338;2022-10-04T04:46:43;5.50;;;2.00;;
66761;SDS011;53672;48.176;16.338;2022-10-04T04:51:47;4.43;;;2.10;;
66761;SDS011;53672;48.176;16.338;2022-10-04T04:56:52;6.72;;;2.22;;
66761;SDS011;53672;48.176;16.338;2022-10-04T05:01:54;4.55;;;1.70;;
66761;SDS011;53672;48.176;16.338;2022-10-04T05:06:59;6.30;;;2.17;;
66761;SDS011;53672;48.176;16.338;2022-10-04T05:12:05;6.67;;;1.90;;
66761;SDS011;53672;48.176;16.338;2022-10-04T05:17:13;6.63;;;2.42;;
66761;SDS011;53672;48.176;16.338;2022-10-04T05:22:18;7.63;;;2.33;;
66761;SDS011;53672;48.176;16.338;2022-10-04T05:27:24;7.28;;;2.17;;
66761;SDS011;53672;48.176;16.338;2022-10-04T05:32:32;6.03;;;1.77;;
66761;SDS011;53672;48.176;16.338;2022-10-04T05:37:44;5.87;;;2.20;;
66761;SDS011;53672;48.176;16.338;2022-10-04T05:42:57;5.97;;;1.92;;
66761;SDS011;53672;48.176;16.338;2022-10-04T05:47:59;7.47;;;2.65;;
66761;SDS011;53672;48.176;16.338;2022-10-04T05:53:16;5.88;;;2.17;;
66761;SDS011;53672;48.176;16.338;2022-10-04T05:58:26;7.40;;;2.20;;
66761;SDS011;53672;48.176;16.338;2022-10-04T06:03:51;9.20;;;3.07;;
66761;SDS011;53672;48.176;16.338;2022-10-04T06:09:11;6.18;;;2.13;;
66761;SDS011;53672;48.176;16.338;2022-10-04T06:14:24;6.15;;;2.10;;
66761;SDS011;53672;48.176;16.338;2022-10-04T06:24:59;9.38;;;2.92;;
66761;SDS011;53672;48.176;16.338;2022-10-04T06:30:08;6.60;;;2.53;;
66761;SDS011;53672;48.176;16.338;2022-10-04T06:35:25;6.78;;;2.33;;
66761;SDS011;53672;48.176;16.338;2022-10-04T06:40:50;10.60;;;2.65;;
66761;SDS011;53672;48.176;16.338;2022-10-04T06:46:07;6.30;;;2.55;;
66761;SDS011;53672;48.176;16.338;2022-10-04T06:51:17;5.90;;;2.00;;
66761;SDS011;53672;48.176;16.338;2022-10-04T06:56:31;9.07;;;2.30;;
66761;SDS011;53672;48.176;16.338;2022-10-04T07:01:47;7.03;;;2.20;;
66761;SDS011;53672;48.176;16.338;2022-10-04T07:06:50;5.95;;;2.45;;
66761;SDS011;53672;48.176;16.338;2022-10-04T07:12:06;7.47;;;2.17;;
66761;SDS011;53672;48.176;16.338;2022-10-04T07:17:13;8.65;;;2.40;;
66761;SDS011;53672;48.176;16.338;2022-10-04T07:22:21;6.53;;;2.20;;
66761;SDS011;53672;48.176;16.338;2022-10-04T07:27:27;5.05;;;1.88;;
66761;SDS011;53672;48.176;16.338;2022-10-04T07:32:33;5.95;;;2.10;;
66761;SDS011;53672;48.176;16.338;2022-10-04T07:37:44;5.60;;;2.20;;
66761;SDS011;53672;48.176;16.338;2022-10-04T07:42:50;7.50;;;1.70;;
66761;SDS011;53672;48.176;16.338;2022-10-04T07:48:01;5.83;;;1.77;;
66761;SDS011;53672;48.176;16.338;2022-10-04T07:53:04;6.30;;;2.30;;
66761;SDS011;53672;48.176;16.338;2022-10-04T07:58:10;5.40;;;1.92;;
66761;SDS011;53672;48.176;16.338;2022-10-04T08:03:39;7.68;;;2.00;;
66761;SDS011;53672;48.176;16.338;2022-10-04T08:08:59;6.00;;;2.00;;
66761;SDS011;53672;48.176;16.338;2022-10-04T08:14:15;5.20;;;2.00;;
66761;SDS011;53672;48.176;16.338;2022-10-04T08:19:30;5.43;;;2.03;;
66761;SDS011;53672;48.176;16.338;2022-10-04T08:24:41;5.90;;;1.90;;
66761;SDS011;53672;48.176;16.338;2022-10-04T08:30:10;7.78;;;2.13;;
66761;SDS011;53672;48.176;16.338;2022-10-04T08:35:30;7.40;;;1.90;;
66761;SDS011;53672;48.176;16.338;2022-10-04T08:52:15;5.78;;;2.00;;
66761;SDS011;53672;48.176;16.338;2022-10-04T08:57:42;5.82;;;1.73;;
66761;SDS011;53672;48.176;16.338;2022-10-04T09:09:00;6.93;;;1.80;;
66761;SDS011;53672;48.176;16.338;2022-10-04T09:14:26;7.65;;;1.95;;
66761;SDS011;53672;48.176;16.338;2022-10-04T09:19:39;6.95;;;2.15;;
66761;SDS011;53672;48.176;16.338;2022-10-04T09:24:56;9.77;;;1.85;;
66761;SDS011;53672;48.176;16.338;2022-10-04T09:30:13;6.63;;;2.08;;
66761;SDS011;53672;48.176;16.338;2022-10-04T09:35:20;8.43;;;1.97;;
66761;SDS011;53672;48.176;16.338;2022-10-04T09:46:22;7.07;;;2.22;;
66761;SDS011;53672;48.176;16.338;2022-10-04T09:57:04;7.47;;;3.17;;
66761;SDS011;53672;48.176;16.338;2022-10-04T10:02:36;6.17;;;1.87;;
66761;SDS011;53672;48.176;16.338;2022-10-04T10:08:10;5.95;;;1.88;;
66761;SDS011;53672;48.176;16.338;2022-10-04T10:13:21;3.90;;;1.50;;
66761;SDS011;53672;48.176;16.338;2022-10-04T10:18:32;6.07;;;1.67;;
66761;SDS011;53672;48.176;16.338;2022-10-04T10:41:01;4.75;;;1.85;;
66761;SDS011;53672;48.176;16.338;2022-10-04T10:46:23;5.40;;;1.77;;
66761;SDS011;53672;48.176;16.338;2022-10-04T10:57:19;4.23;;;1.93;;
66761;SDS011;53672;48.176;16.338;2022-10-04T11:02:53;5.78;;;1.80;;
66761;SDS011;53672;48.176;16.338;2022-10-04T11:08:34;4.97;;;1.65;;
66761;SDS011;53672;48.176;16.338;2022-10-04T11:14:01;4.93;;;2.00;;
66761;SDS011;53672;48.176;16.338;2022-10-04T11:31:00;5.93;;;2.67;;
66761;SDS011;53672;48.176;16.338;2022-10-04T11:36:28;6.25;;;2.05;;
66761;SDS011;53672;48.176;16.338;2022-10-04T11:41:44;4.43;;;2.00;;
66761;SDS011;53672;48.176;16.338;2022-10-04T11:46:52;4.97;;;1.77;;
66761;SDS011;53672;48.176;16.338;2022-10-04T11:52:09;6.20;;;2.27;;
66761;SDS011;53672;48.176;16.338;2022-10-04T11:57:27;9.45;;;3.40;;
66761;SDS011;53672;48.176;16.338;2022-10-04T12:02:52;6.53;;;2.08;;
66761;SDS011;53672;48.176;16.338;2022-10-04T12:08:03;6.38;;;2.30;;
66761;SDS011;53672;48.176;16.338;2022-10-04T12:13:34;4.38;;;1.92;;
66761;SDS011;53672;48.176;16.338;2022-10-04T12:30:00;5.15;;;1.70;;
66761;SDS011;53672;48.176;16.338;2022-10-04T12:35:18;4.65;;;1.73;;
66761;SDS011;53672;48.176;16.338;2022-10-04T12:40:29;3.85;;;1.60;;
66761;SDS011;53672;48.176;16.338;2022-10-04T12:45:39;5.67;;;1.73;;
66761;SDS011;53672;48.176;16.338;2022-10-04T12:50:55;7.57;;;1.75;;
66761;SDS011;53672;48.176;16.338;2022-10-04T12:56:07;4.43;;;1.58;;
66761;SDS011;53672;48.176;16.338;2022-10-04T13:01:16;5.35;;;1.60;;
66761;SDS011;53672;48.176;16.338;2022-10-04T13:06:26;5.13;;;1.73;;
66761;SDS011;53672;48.176;16.338;2022-10-04T13:11:40;5.10;;;1.90;;
66761;SDS011;53672;48.176;16.338;2022-10-04T13:16:57;6.70;;;2.15;;
66761;SDS011;53672;48.176;16.338;2022-10-04T13:22:09;5.72;;;2.20;;
66761;SDS011;53672;48.176;16.338;2022-10-04T13:27:23;4.03;;;1.80;;
66761;SDS011;53672;48.176;16.338;2022-10-04T13:32:32;4.20;;;1.50;;
66761;SDS011;53672;48.176;16.338;2022-10-04T13:37:43;6.43;;;1.47;;
66761;SDS011;53672;48.176;16.338;2022-10-04T13:48:27;4.18;;;1.45;;
66761;SDS011;53672;48.176;16.338;2022-10-04T13:53:33;4.75;;;1.50;;
66761;SDS011;53672;48.176;16.338;2022-10-04T13:58:45;5.05;;;1.65;;
66761;SDS011;53672;48.176;16.338;2022-10-04T14:03:55;6.47;;;2.20;;
66761;SDS011;53672;48.176;16.338;2022-10-04T14:09:21;8.25;;;1.70;;
66761;SDS011;53672;48.176;16.338;2022-10-04T14:14:42;6.90;;;1.70;;
66761;SDS011;53672;48.176;16.338;2022-10-04T14:31:41;5.43;;;1.97;;
66761;SDS011;53672;48.176;16.338;2022-10-04T14:37:06;4.78;;;1.90;;
66761;SDS011;53672;48.176;16.338;2022-10-04T14:42:34;6.43;;;1.60;;
66761;SDS011;53672;48.176;16.338;2022-10-04T14:48:00;5.85;;;1.40;;
66761;SDS011;53672;48.176;16.338;2022-10-04T14:53:18;4.57;;;1.50;;
66761;SDS011;53672;48.176;16.338;2022-10-04T14:58:25;3.53;;;1.53;;
66761;SDS011;53672;48.176;16.338;2022-10-04T15:03:34;5.10;;;1.63;;
66761;SDS011;53672;48.176;16.338;2022-10-04T15:08:57;6.00;;;2.10;;
66761;SDS011;53672;48.176;16.338;2022-10-04T15:14:19;3.95;;;1.60;;
66761;SDS011;53672;48.176;16.338;2022-10-04T15:19:27;4.93;;;1.60;;
66761;SDS011;53672;48.176;16.338;2022-10-04T15:24:42;5.43;;;1.70;;
66761;SDS011;53672;48.176;16.338;2022-10-04T15:29:46;5.97;;;2.00;;
66761;SDS011;53672;48.176;16.338;2022-10-04T15:34:57;7.22;;;2.58;;
66761;SDS011;53672;48.176;16.338;2022-10-04T15:45:36;5.05;;;1.88;;
66761;SDS011;53672;48.176;16.338;2022-10-04T15:51:06;4.70;;;1.87;;
66761;SDS011;53672;48.176;16.338;2022-10-04T15:56:22;4.40;;;1.70;;
66761;SDS011;53672;48.176;16.338;2022-10-04T16:01:34;4.50;;;1.60;;
66761;SDS011;53672;48.176;16.338;2022-10-04T16:06:57;10.25;;;2.83;;
66761;SDS011;53672;48.176;16.338;2022-10-04T16:12:21;7.35;;;2.45;;
66761;SDS011;53672;48.176;16.338;2022-10-04T16:17:33;5.57;;;2.10;;
66761;SDS011;53672;48.176;16.338;2022-10-04T16:28:37;12.73;;;2.03;;
66761;SDS011;53672;48.176;16.338;2022-10-04T16:33:52;5.22;;;1.70;;
66761;SDS011;53672;48.176;16.338;2022-10-04T16:38:59;5.60;;;1.90;;
66761;SDS011;53672;48.176;16.338;2022-10-04T16:44:02;5.77;;;1.90;;
66761;SDS011;53672;48.176;16.338;2022-10-04T16:49:21;5.00;;;1.88;;
66761;SDS011;53672;48.176;16.338;2022-10-04T16:54:36;5.18;;;2.38;;
66761;SDS011;53672;48.176;16.338;2022-10-04T16:59:49;6.65;;;2.47;;
66761;SDS011;53672;48.176;16.338;2022-10-04T17:05:04;7.93;;;3.33;;
66761;SDS011;53672;48.176;16.338;2022-10-04T17:10:26;6.80;;;3.00;;
66761;SDS011;53672;48.176;16.338;2022-10-04T17:15:42;6.68;;;2.85;;
66761;SDS011;53672;48.176;16.338;2022-10-04T17:20:50;8.30;;;3.20;;
66761;SDS011;53672;48.176;16.338;2022-10-04T17:25:58;6.68;;;3.03;;
66761;SDS011;53672;48.176;16.338;2022-10-04T17:31:10;7.40;;;2.97;;
66761;SDS011;53672;48.176;16.338;2022-10-04T17:36:18;8.93;;;3.20;;
66761;SDS011;53672;48.176;16.338;2022-10-04T17:41:36;6.82;;;3.58;;
66761;SDS011;53672;48.176;16.338;2022-10-04T17:46:49;8.63;;;3.92;;
66761;SDS011;53672;48.176;16.338;2022-10-04T17:51:59;9.82;;;4.40;;
66761;SDS011;53672;48.176;16.338;2022-10-04T17:57:11;10.48;;;4.15;;
66761;SDS011;53672;48.176;16.338;2022-10-04T18:02:26;8.83;;;4.10;;
66761;SDS011;53672;48.176;16.338;2022-10-04T18:07:46;12.55;;;4.57;;
66761;SDS011;53672;48.176;16.338;2022-10-04T18:12:54;9.10;;;4.32;;
66761;SDS011;53672;48.176;16.338;2022-10-04T18:18:10;7.40;;;3.70;;
66761;SDS011;53672;48.176;16.338;2022-10-04T18:23:15;7.38;;;3.53;;
66761;SDS011;53672;48.176;16.338;2022-10-04T18:28:19;8.27;;;3.53;;
66761;SDS011;53672;48.176;16.338;2022-10-04T18:33:23;8.95;;;3.83;;
66761;SDS011;53672;48.176;16.338;2022-10-04T18:38:29;8.50;;;3.95;;
66761;SDS011;53672;48.176;16.338;2022-10-04T18:43:32;11.85;;;4.50;;
66761;SDS011;53672;48.176;16.338;2022-10-04T18:48:41;10.13;;;4.53;;
66761;SDS011;53672;48.176;16.338;2022-10-04T18:53:52;9.93;;;4.07;;
66761;SDS011;53672;48.176;16.338;2022-10-04T18:59:16;9.35;;;4.22;;
66761;SDS011;53672;48.176;16.338;2022-10-04T19:04:27;7.30;;;3.88;;
66761;SDS011;53672;48.176;16.338;2022-10-04T19:09:55;8.10;;;3.70;;
66761;SDS011;53672;48.176;16.338;2022-10-04T19:15:05;7.75;;;3.53;;
66761;SDS011;53672;48.176;16.338;2022-10-04T19:20:15;8.17;;;3.77;;
66761;SDS011;53672;48.176;16.338;2022-10-04T19:25:23;10.90;;;4.05;;
66761;SDS011;53672;48.176;16.338;2022-10-04T19:30:40;9.82;;;4.38;;
66761;SDS011;53672;48.176;16.338;2022-10-04T19:35:57;11.50;;;4.30;;
66761;SDS011;53672;48.176;16.338;2022-10-04T19:41:10;10.30;;;4.22;;
66761;SDS011;53672;48.176;16.338;2022-10-04T19:46:22;12.63;;;4.30;;
66761;SDS011;53672;48.176;16.338;2022-10-04T19:51:36;10.00;;;4.00;;
66761;SDS011;53672;48.176;16.338;2022-10-04T19:56:43;12.55;;;4.45;;
66761;SDS011;53672;48.176;16.338;2022-10-04T20:01:45;8.63;;;4.13;;
66761;SDS011;53672;48.176;16.338;2022-10-04T20:06:48;9.15;;;3.97;;
66761;SDS011;53672;48.176;16.338;2022-10-04T20:11:53;10.27;;;4.30;;
66761;SDS011;53672;48.176;16.338;2022-10-04T20:17:03;13.48;;;5.13;;
66761;SDS011;53672;48.176;16.338;2022-10-04T20:27:58;13.18;;;4.65;;
66761;SDS011;53672;48.176;16.338;2022-10-04T20:33:00;12.02;;;4.57;;
66761;SDS011;53672;48.176;16.338;2022-10-04T20:38:14;11.32;;;5.32;;
66761;SDS011;53672;48.176;16.338;2022-10-04T20:43:24;13.83;;;5.13;;
66761;SDS011;53672;48.176;16.338;2022-10-04T20:48:25;12.32;;;5.45;;
66761;SDS011;53672;48.176;16.338;2022-10-04T20:53:28;13.38;;;5.68;;
66761;SDS011;53672;48.176;16.338;2022-10-04T20:58:31;13.40;;;6.03;;
66761;SDS011;53672;48.176;16.338;2022-10-04T21:03:32;16.02;;;5.25;;
66761;SDS011;53672;48.176;16.338;2022-10-04T21:08:34;10.87;;;5.27;;
66761;SDS011;53672;48.176;16.338;2022-10-04T21:13:39;10.60;;;4.95;;
66761;SDS011;53672;48.176;16.338;2022-10-04T21:18:41;10.30;;;5.07;;
66761;SDS011;53672;48.176;16.338;2022-10-04T21:23:43;9.47;;;4.43;;
66761;SDS011;53672;48.176;16.338;2022-10-04T21:28:43;17.48;;;5.00;;
66761;SDS011;53672;48.176;16.338;2022-10-04T21:33:44;10.70;;;4.40;;
66761;SDS011;53672;48.176;16.338;2022-10-04T21:38:46;9.20;;;4.20;;
66761;SDS011;53672;48.176;16.338;2022-10-04T21:43:46;9.63;;;4.03;;
66761;SDS011;53672;48.176;16.338;2022-10-04T21:48:47;11.17;;;4.10;;
66761;SDS011;53672;48.176;16.338;2022-10-04T21:53:49;15.97;;;4.43;;
66761;SDS011;53672;48.176;16.338;2022-10-04T21:58:49;12.45;;;4.82;;
66761;SDS011;53672;48.176;16.338;2022-10-04T22:03:50;10.18;;;4.32;;
66761;SDS011;53672;48.176;16.338;2022-10-04T22:08:52;10.50;;;4.50;;
66761;SDS011;53672;48.176;16.338;2022-10-04T22:13:52;10.07;;;4.05;;
66761;SDS011;53672;48.176;16.338;2022-10-04T22:18:53;9.23;;;4.35;;
66761;SDS011;53672;48.176;16.338;2022-10-04T22:23:55;9.83;;;4.47;;
66761;SDS011;53672;48.176;16.338;2022-10-04T22:28:55;12.30;;;4.22;;
66761;SDS011;53672;48.176;16.338;2022-10-04T22:33:56;9.20;;;4.23;;
66761;SDS011;53672;48.176;16.338;2022-10-04T22:38:59;12.73;;;4.93;;
66761;SDS011;53672;48.176;16.338;2022-10-04T22:44:06;12.43;;;4.40;;
66761;SDS011;53672;48.176;16.338;2022-10-04T22:49:14;9.33;;;4.43;;
66761;SDS011;53672;48.176;16.338;2022-10-04T22:54:18;9.98;;;4.07;;
66761;SDS011;53672;48.176;16.338;2022-10-04T22:59:21;13.07;;;4.70;;
66761;SDS011;53672;48.176;16.338;2022-10-04T23:04:26;9.63;;;4.25;;
66761;SDS011;53672;48.176;16.338;2022-10-04T23:09:28;10.13;;;4.23;;
66761;SDS011;53672;48.176;16.338;2022-10-04T23:14:28;11.73;;;4.45;;
66761;SDS011;53672;48.176;16.338;2022-10-04T23:19:29;11.30;;;4.27;;
66761;SDS011;53672;48.176;16.338;2022-10-04T23:24:31;9.47;;;3.93;;
66761;SDS011;53672;48.176;16.338;2022-10-04T23:29:32;10.05;;;4.13;;
66761;SDS011;53672;48.176;16.338;2022-10-04T23:34:35;9.45;;;4.22;;
66761;SDS011;53672;48.176;16.338;2022-10-04T23:39:38;11.35;;;4.22;;
66761;SDS011;53672;48.176;16.338;2022-10-04T23:44:39;10.82;;;4.18;;
66761;SDS011;53672;48.176;16.338;2022-10-04T23:49:39;10.00;;;4.47;;
66761;SDS011;53672;48.176;16.338;2022-10-04T23:54:42;11.20;;;3.90;;
66761;SDS011;53672;48.176;16.338;2022-10-04T23:59:42;10.18;;;4.10;;
